Time;durP1;ratioP1;P1;durP2;ratioP2;P2;SDS_P1;SDS_P2;PMS_P1;PMS_P2;Temp;Humidity;BMP_temperature;BMP_pressure;BME280_temperature;BME280_humidity;BME280_pressure;Samples;Min_cycle;Max_cycle;Signal;HPM_P1;HPM_P2
2023/09/02 00:01:19;;;;;;;6.80;6.20;;;14.00;87.70;;;;;;4962466;28;20048;-93
2023/09/02 00:03:44;;;;;;;7.77;7.07;;;13.90;87.30;;;;;;4958195;28;20058;-89
2023/09/02 00:06:10;;;;;;;8.40;7.70;;;13.90;86.90;;;;;;4943166;28;20465;-92
2023/09/02 00:08:36;;;;;;;7.67;6.80;;;13.80;86.40;;;;;;4961575;28;20053;-92
2023/09/02 00:11:01;;;;;;;9.43;7.57;;;13.80;86.90;;;;;;4961830;28;20050;-92
2023/09/02 00:13:27;;;;;;;7.60;7.00;;;13.80;87.10;;;;;;4946302;28;20097;-93
2023/09/02 00:15:53;;;;;;;7.17;6.53;;;13.70;85.60;;;;;;4968128;28;20050;-92
2023/09/02 00:18:18;;;;;;;6.83;6.17;;;13.70;84.60;;;;;;4950085;28;20101;-92
2023/09/02 00:20:44;;;;;;;8.00;7.20;;;13.60;83.60;;;;;;4974864;28;20043;-92
2023/09/02 00:23:10;;;;;;;6.60;6.07;;;13.60;82.70;;;;;;4942162;28;20322;-92
2023/09/02 00:25:36;;;;;;;6.85;6.13;;;13.50;81.50;;;;;;4948392;28;20078;-92
2023/09/02 00:28:02;;;;;;;9.13;6.83;;;13.50;81.50;;;;;;4945859;28;20085;-92
2023/09/02 00:30:27;;;;;;;9.60;7.03;;;13.50;83.30;;;;;;4962147;28;20297;-93
2023/09/02 00:32:53;;;;;;;6.90;6.30;;;13.40;84.10;;;;;;4961271;28;20313;-92
2023/09/02 00:35:19;;;;;;;8.17;7.30;;;13.50;84.60;;;;;;4973720;28;20393;-92
2023/09/02 00:37:45;;;;;;;8.02;6.50;;;13.40;85.00;;;;;;4953667;28;20042;-93
2023/09/02 00:40:15;;;;;;;6.67;5.97;;;13.40;84.10;;;;;;4977299;28;20104;-92
2023/09/02 00:42:42;;;;;;;7.20;6.47;;;13.40;83.60;;;;;;4961724;28;20046;-92
2023/09/02 00:45:08;;;;;;;6.50;5.90;;;13.40;82.60;;;;;;4977306;28;20116;-91
2023/09/02 00:47:34;;;;;;;8.85;6.38;;;13.40;81.40;;;;;;4957177;28;20039;-92
2023/09/02 00:50:00;;;;;;;6.20;5.70;;;13.30;78.60;;;;;;4941638;28;20117;-92
2023/09/02 00:52:26;;;;;;;7.90;7.13;;;13.30;76.80;;;;;;4942107;28;20043;-92
2023/09/02 00:54:52;;;;;;;7.70;7.00;;;13.20;76.90;;;;;;4941946;28;20053;-90
2023/09/02 00:57:18;;;;;;;6.90;6.27;;;13.30;79.40;;;;;;4948597;28;20070;-92
2023/09/02 00:59:44;;;;;;;7.65;6.90;;;13.20;80.70;;;;;;4958026;28;20380;-92
2023/09/02 01:02:11;;;;;;;6.83;6.23;;;13.10;81.60;;;;;;4941112;28;20082;-92
2023/09/02 01:04:37;;;;;;;7.20;6.60;;;13.10;82.20;;;;;;4975094;28;20047;-92
2023/09/02 01:07:05;;;;;;;7.70;6.90;;;13.10;83.20;;;;;;4941284;28;20060;-92
2023/09/02 01:09:31;;;;;;;7.20;6.50;;;13.10;84.70;;;;;;4942347;28;20685;-91
2023/09/02 01:11:57;;;;;;;8.65;6.82;;;13.10;86.00;;;;;;4941094;28;20531;-91
2023/09/02 01:14:23;;;;;;;8.33;7.53;;;13.10;86.70;;;;;;4941662;28;20062;-91
2023/09/02 01:16:49;;;;;;;7.70;7.00;;;13.20;87.50;;;;;;4941263;28;20059;-90
2023/09/02 01:19:18;;;;;;;7.00;6.30;;;13.10;88.10;;;;;;4959165;28;20046;-92
2023/09/02 01:22:28;;;;;;;6.93;6.22;;;13.10;88.10;;;;;;4960641;28;20377;-91
2023/09/02 01:25:14;;;;;;;7.32;6.55;;;13.20;89.10;;;;;;4957690;28;20141;-90
2023/09/02 01:27:48;;;;;;;7.40;6.78;;;13.10;88.90;;;;;;4972704;28;20397;-91
2023/09/02 01:30:20;;;;;;;8.45;6.22;;;13.10;88.90;;;;;;4956511;28;20397;-91
2023/09/02 01:32:51;;;;;;;8.00;6.45;;;13.10;89.00;;;;;;4956968;28;20145;-91
2023/09/02 01:35:21;;;;;;;6.97;6.28;;;13.10;88.90;;;;;;4956820;28;20497;-92
2023/09/02 01:37:55;;;;;;;7.05;6.45;;;13.10;89.10;;;;;;4941324;28;20573;-91
2023/09/02 01:40:25;;;;;;;6.57;5.97;;;12.60;88.10;;;;;;4975758;28;20519;-91
2023/09/02 01:42:51;;;;;;;7.93;6.55;;;13.10;87.20;;;;;;4976675;28;20080;-92
2023/09/02 01:45:20;;;;;;;6.93;6.38;;;13.00;86.80;;;;;;4960240;28;20227;-91
2023/09/02 01:47:47;;;;;;;7.53;6.75;;;11.80;86.40;;;;;;4956474;28;20051;-92
2023/09/02 01:50:15;;;;;;;9.90;6.68;;;13.00;87.80;;;;;;4956647;28;20050;-91
2023/09/02 01:52:42;;;;;;;6.93;6.22;;;12.90;87.70;;;;;;4956879;28;20102;-92
2023/09/02 01:55:09;;;;;;;6.65;6.05;;;13.00;88.00;;;;;;4956573;28;20487;-91
2023/09/02 01:57:34;;;;;;;7.55;6.22;;;12.90;88.10;;;;;;4957233;28;20046;-91
2023/09/02 02:00:00;;;;;;;6.38;5.75;;;12.90;87.50;;;;;;4956606;28;20054;-89
2023/09/02 02:02:26;;;;;;;6.40;5.78;;;12.80;86.70;;;;;;4940476;28;20054;-92
2023/09/02 02:04:55;;;;;;;9.53;6.60;;;12.90;85.50;;;;;;4925474;28;20138;-92
2023/09/02 02:07:23;;;;;;;9.45;6.53;;;12.80;85.50;;;;;;4940790;28;20290;-92
2023/09/02 02:09:55;;;;;;;7.97;6.28;;;12.70;86.70;;;;;;4949397;28;20050;-93
2023/09/02 02:12:22;;;;;;;6.97;6.28;;;12.70;86.80;;;;;;4956503;28;20043;-92
2023/09/02 02:14:47;;;;;;;6.70;6.10;;;12.70;87.80;;;;;;4957338;28;20378;-92
2023/09/02 02:17:13;;;;;;;7.47;6.33;;;12.70;88.10;;;;;;4956415;28;20043;-92
2023/09/02 02:19:40;;;;;;;8.63;6.80;;;12.60;87.70;;;;;;4961392;28;20043;-93
2023/09/02 02:22:06;;;;;;;8.52;6.82;;;12.70;87.50;;;;;;4973134;28;20046;-91
2023/09/02 02:24:31;;;;;;;9.25;6.40;;;12.70;87.80;;;;;;4956973;28;20129;-92
2023/09/02 02:26:57;;;;;;;7.57;6.70;;;12.70;88.40;;;;;;4972956;28;20055;-92
2023/09/02 02:29:23;;;;;;;6.93;6.33;;;12.70;89.20;;;;;;4956899;28;20054;-93
2023/09/02 02:31:49;;;;;;;7.90;6.53;;;12.70;89.40;;;;;;4941042;28;20069;-91
2023/09/02 02:34:15;;;;;;;12.00;7.55;;;12.70;88.60;;;;;;4956403;28;20478;-91
2023/09/02 02:36:41;;;;;;;6.27;5.67;;;12.50;88.50;;;;;;4956595;28;20053;-91
2023/09/02 02:39:07;;;;;;;8.03;6.27;;;12.60;87.40;;;;;;4956585;28;20137;-89
2023/09/02 02:41:33;;;;;;;8.25;6.78;;;12.60;87.50;;;;;;4957369;28;20054;-92
2023/09/02 02:43:59;;;;;;;6.93;6.33;;;12.50;88.20;;;;;;4940469;28;20062;-92
2023/09/02 02:46:25;;;;;;;7.47;6.10;;;12.50;87.70;;;;;;4940175;28;20387;-91
2023/09/02 02:48:51;;;;;;;7.53;6.55;;;12.50;87.70;;;;;;4940440;28;20465;-91
2023/09/02 02:51:17;;;;;;;7.00;6.10;;;12.50;87.50;;;;;;4947910;28;20046;-91
2023/09/02 02:53:42;;;;;;;7.73;5.80;;;12.40;87.80;;;;;;4959412;28;20309;-92
2023/09/02 02:56:08;;;;;;;8.50;6.20;;;12.40;88.30;;;;;;4943978;28;20133;-88
2023/09/02 02:58:34;;;;;;;7.77;7.00;;;12.40;88.80;;;;;;4944160;28;20046;-91
2023/09/02 03:01:06;;;;;;;8.17;5.70;;;12.40;88.90;;;;;;4962367;28;20167;-92
2023/09/02 03:03:32;;;;;;;5.63;5.13;;;12.40;89.40;;;;;;4978791;28;20409;-92
2023/09/02 03:06:03;;;;;;;7.70;5.88;;;12.40;89.20;;;;;;4963975;28;20404;-92
2023/09/02 03:08:29;;;;;;;6.75;4.90;;;12.40;88.40;;;;;;4979171;28;20109;-92
2023/09/02 03:10:57;;;;;;;5.45;4.95;;;12.30;87.70;;;;;;4947363;28;20086;-92
2023/09/02 03:13:27;;;;;;;6.45;5.35;;;12.30;87.60;;;;;;4943009;28;20046;-91
2023/09/02 03:15:56;;;;;;;6.32;5.32;;;12.30;88.10;;;;;;4960062;28;20054;-92
2023/09/02 03:18:23;;;;;;;6.38;5.22;;;12.30;88.30;;;;;;4942781;28;20049;-91
2023/09/02 03:20:49;;;;;;;6.38;5.45;;;12.30;88.70;;;;;;4959722;28;20061;-92
2023/09/02 03:23:15;;;;;;;5.63;5.10;;;12.30;88.90;;;;;;4942826;28;20042;-91
2023/09/02 03:25:41;;;;;;;5.93;5.43;;;12.20;88.70;;;;;;4977859;28;20424;-92
2023/09/02 03:28:07;;;;;;;7.07;5.73;;;12.20;88.90;;;;;;4963055;28;20651;-92
2023/09/02 03:30:33;;;;;;;7.03;4.93;;;12.30;89.40;;;;;;4946577;28;20042;-92
2023/09/02 03:32:59;;;;;;;6.43;5.82;;;12.20;90.00;;;;;;4977151;28;20061;-92
2023/09/02 03:35:25;;;;;;;5.60;5.00;;;12.20;90.50;;;;;;4962218;28;20050;-92
2023/09/02 03:37:51;;;;;;;5.28;4.70;;;12.30;91.00;;;;;;4962786;28;20074;-92
2023/09/02 03:40:17;;;;;;;5.85;5.35;;;12.20;91.30;;;;;;4978462;28;20371;-91
2023/09/02 03:42:43;;;;;;;7.30;6.57;;;12.30;91.70;;;;;;4961026;28;20066;-92
2023/09/02 03:45:09;;;;;;;7.25;6.57;;;12.30;92.10;;;;;;4949741;28;20398;-91
2023/09/02 03:47:36;;;;;;;6.30;5.70;;;12.30;92.70;;;;;;4962220;28;20272;-91
2023/09/02 03:50:05;;;;;;;6.45;5.75;;;12.30;92.90;;;;;;4962250;28;20050;-91
2023/09/02 03:52:31;;;;;;;6.40;5.70;;;12.30;92.60;;;;;;4977854;28;20489;-91
2023/09/02 03:54:58;;;;;;;5.93;4.90;;;12.30;92.60;;;;;;4957305;28;20100;-91
2023/09/02 03:57:24;;;;;;;6.07;4.82;;;12.30;92.50;;;;;;4958557;28;20509;-91
2023/09/02 03:59:53;;;;;;;6.13;4.93;;;12.30;92.50;;;;;;4976224;28;20500;-91
2023/09/02 04:02:19;;;;;;;5.63;4.80;;;12.30;92.50;;;;;;4958057;28;20055;-91
2023/09/02 04:04:45;;;;;;;5.20;4.70;;;12.30;92.80;;;;;;4958931;28;20069;-91
2023/09/02 04:07:10;;;;;;;5.37;4.43;;;12.20;92.60;;;;;;4943093;28;20060;-91
2023/09/02 04:09:36;;;;;;;5.10;4.60;;;12.20;92.50;;;;;;4958639;28;20047;-91
2023/09/02 04:12:03;;;;;;;5.07;4.53;;;12.20;92.70;;;;;;4943007;28;20150;-91
2023/09/02 04:14:28;;;;;;;6.05;5.35;;;12.20;92.80;;;;;;4958175;28;20497;-91
2023/09/02 04:16:55;;;;;;;6.87;6.17;;;12.20;93.60;;;;;;4943353;28;20117;-91
2023/09/02 04:19:22;;;;;;;5.68;5.07;;;12.20;94.20;;;;;;4942348;28;20050;-89
2023/09/02 04:21:49;;;;;;;6.00;5.45;;;12.30;94.20;;;;;;4958247;28;20138;-91
2023/09/02 04:24:15;;;;;;;5.65;5.15;;;12.30;94.10;;;;;;4958197;28;20504;-91
2023/09/02 04:26:40;;;;;;;5.55;4.63;;;12.20;94.30;;;;;;4948668;28;20113;-91
2023/09/02 04:29:06;;;;;;;5.37;4.87;;;11.10;94.20;;;;;;4958810;28;20449;-91
2023/09/02 04:31:32;;;;;;;5.10;4.70;;;12.30;94.80;;;;;;4957891;28;20700;-92
2023/09/02 04:33:58;;;;;;;5.43;4.93;;;12.30;94.60;;;;;;4958994;28;20133;-91
2023/09/02 04:36:23;;;;;;;6.33;5.73;;;12.20;94.80;;;;;;4957310;28;20070;-90
2023/09/02 04:38:51;;;;;;;6.90;5.90;;;12.30;95.10;;;;;;4958413;28;20102;-91
2023/09/02 04:41:17;;;;;;;7.03;5.75;;;12.30;95.40;;;;;;4958209;28;20109;-91
2023/09/02 04:43:43;;;;;;;5.97;5.38;;;12.30;95.70;;;;;;4957252;28;20112;-91
2023/09/02 04:46:09;;;;;;;8.63;6.40;;;12.30;95.80;;;;;;4957652;28;20046;-91
2023/09/02 04:48:35;;;;;;;5.78;5.20;;;12.30;96.10;;;;;;4957614;28;20086;-87
2023/09/02 04:51:03;;;;;;;7.17;5.70;;;12.30;96.60;;;;;;4978786;28;20042;-87
2023/09/02 04:53:29;;;;;;;8.55;7.63;;;13.60;97.00;;;;;;4976380;28;20050;-90
2023/09/02 04:55:55;;;;;;;9.07;8.18;;;12.30;97.10;;;;;;4959578;28;20566;-89
2023/09/02 04:58:22;;;;;;;10.47;8.57;;;12.30;97.40;;;;;;4973982;28;20066;-87
2023/09/02 05:00:49;;;;;;;10.20;7.57;;;12.30;97.90;;;;;;4985022;28;20494;-88
2023/09/02 05:03:15;;;;;;;8.55;7.68;;;12.30;98.60;;;;;;4973195;28;20055;-88
2023/09/02 05:05:40;;;;;;;10.93;7.97;;;12.30;99.30;;;;;;4973006;28;20193;-88
2023/09/02 05:08:06;;;;;;;8.83;7.93;;;12.30;99.90;;;;;;4989916;28;20141;-89
2023/09/02 05:10:32;;;;;;;11.90;8.48;;;12.40;99.90;;;;;;4972337;28;20305;-86
2023/09/02 05:12:58;;;;;;;10.73;8.15;;;12.40;99.90;;;;;;4976454;28;20038;-88
2023/09/02 05:15:24;;;;;;;10.23;9.07;;;12.40;99.90;;;;;;4993155;28;20073;-90
2023/09/02 05:17:50;;;;;;;12.40;9.00;;;12.40;99.90;;;;;;4955700;28;20067;-87
2023/09/02 05:20:16;;;;;;;12.32;9.30;;;12.50;99.90;;;;;;4970660;28;20445;-88
2023/09/02 05:22:42;;;;;;;10.70;8.93;;;12.50;99.90;;;;;;4976144;28;20109;-92
2023/09/02 05:25:08;;;;;;;10.90;9.53;;;12.50;99.90;;;;;;4994750;28;20050;-89
2023/09/02 05:27:34;;;;;;;10.55;9.45;;;12.60;99.90;;;;;;4960145;28;20057;-94
2023/09/02 05:29:59;;;;;;;11.23;9.53;;;12.60;99.90;;;;;;4960965;28;20049;-92
2023/09/02 05:32:25;;;;;;;10.03;9.03;;;12.60;99.90;;;;;;4945201;28;20049;-93
2023/09/02 05:34:51;;;;;;;10.17;8.80;;;12.60;99.90;;;;;;4960615;28;20085;-92
2023/09/02 05:37:16;;;;;;;11.27;9.63;;;12.60;99.90;;;;;;4945141;28;20046;-93
2023/09/02 05:39:42;;;;;;;11.67;10.60;;;12.70;99.90;;;;;;4976456;28;20050;-92
2023/09/02 05:42:08;;;;;;;13.48;11.52;;;12.70;99.90;;;;;;4941297;28;20106;-90
2023/09/02 05:44:37;;;;;;;14.27;11.27;;;12.80;99.90;;;;;;4972630;28;20042;-92
2023/09/02 05:47:03;;;;;;;14.98;12.73;;;12.80;99.90;;;;;;4957031;28;20134;-90
2023/09/02 05:49:29;;;;;;;12.65;11.40;;;12.80;99.90;;;;;;4973935;28;20131;-87
2023/09/02 05:51:54;;;;;;;13.48;11.80;;;12.80;99.90;;;;;;4956028;28;20125;-89
2023/09/02 05:54:20;;;;;;;17.20;13.37;;;12.80;99.90;;;;;;4973271;28;20050;-89
2023/09/02 05:56:49;;;;;;;13.53;12.13;;;12.80;99.90;;;;;;4993137;28;20050;-89
2023/09/02 05:59:14;;;;;;;14.85;13.32;;;12.80;99.90;;;;;;4971375;28;20549;-89
2023/09/02 06:01:40;;;;;;;12.57;11.23;;;12.90;99.90;;;;;;4981456;28;20113;-87
2023/09/02 06:04:06;;;;;;;13.07;11.53;;;13.00;99.90;;;;;;4949978;28;20054;-88
2023/09/02 06:06:34;;;;;;;11.68;8.15;;;13.00;99.90;;;;;;4975603;28;20050;-90
2023/09/02 06:09:00;;;;;;;15.25;13.65;;;13.10;99.90;;;;;;4976280;28;20181;-95
2023/09/02 06:11:26;;;;;;;40.05;14.55;;;13.20;99.90;;;;;;4965385;28;20125;-92
2023/09/02 06:13:52;;;;;;;14.30;12.80;;;13.30;99.90;;;;;;4958184;28;20050;-87
2023/09/02 06:16:17;;;;;;;16.93;13.47;;;13.40;99.90;;;;;;4971156;28;20148;-91
2023/09/02 06:18:43;;;;;;;16.60;12.87;;;13.60;99.90;;;;;;4956129;28;20100;-91
2023/09/02 06:21:13;;;;;;;15.63;12.23;;;13.60;99.90;;;;;;4956946;28;20054;-92
2023/09/02 06:23:43;;;;;;;12.75;11.45;;;13.70;99.90;;;;;;4956657;28;20055;-92
2023/09/02 06:26:11;;;;;;;15.02;13.30;;;13.70;99.90;;;;;;4958073;28;20049;-92
2023/09/02 06:28:37;;;;;;;15.05;11.82;;;13.70;99.90;;;;;;4960840;28;20055;-91
2023/09/02 06:31:07;;;;;;;15.63;12.98;;;13.70;99.90;;;;;;4977725;28;20473;-91
2023/09/02 06:33:33;;;;;;;16.88;14.50;;;13.70;99.90;;;;;;4944762;28;20110;-90
2023/09/02 06:35:59;;;;;;;14.05;12.65;;;13.60;99.90;;;;;;4945083;28;20133;-90
2023/09/02 06:38:24;;;;;;;14.52;12.75;;;13.60;99.90;;;;;;4960693;28;20042;-90
2023/09/02 06:40:50;;;;;;;15.50;13.87;;;13.60;99.90;;;;;;4944299;28;20470;-90
2023/09/02 06:43:16;;;;;;;15.00;13.33;;;13.70;99.90;;;;;;4959969;28;20047;-90
2023/09/02 06:45:41;;;;;;;15.60;14.00;;;13.90;99.90;;;;;;4960802;28;20058;-90
2023/09/02 06:48:08;;;;;;;19.20;16.13;;;14.20;99.90;;;;;;4944633;28;20768;-90
2023/09/02 06:50:34;;;;;;;15.98;14.27;;;14.30;99.50;;;;;;4944578;28;20057;-90
2023/09/02 06:53:00;;;;;;;16.25;14.48;;;14.40;98.10;;;;;;4943786;28;20050;-90
2023/09/02 06:55:28;;;;;;;15.57;14.00;;;14.60;98.10;;;;;;4960605;28;20050;-90
2023/09/02 06:57:53;;;;;;;17.23;14.65;;;14.80;97.50;;;;;;4959770;28;20141;-91
2023/09/02 07:00:19;;;;;;;16.87;13.70;;;14.90;96.00;;;;;;4944467;28;20142;-90
2023/09/02 07:02:44;;;;;;;18.27;16.03;;;15.00;94.90;;;;;;4944560;28;20054;-90
2023/09/02 07:05:10;;;;;;;16.93;15.00;;;15.10;93.60;;;;;;4960594;28;20077;-91
2023/09/02 07:07:37;;;;;;;15.53;13.90;;;15.10;92.30;;;;;;4960403;28;20355;-91
2023/09/02 07:10:05;;;;;;;19.50;16.02;;;15.00;91.70;;;;;;4943726;28;20054;-90
2023/09/02 07:12:31;;;;;;;18.70;15.63;;;15.00;91.70;;;;;;4944328;28;20049;-90
2023/09/02 07:14:56;;;;;;;19.27;17.15;;;15.00;91.70;;;;;;4959451;28;20102;-91
2023/09/02 07:17:22;;;;;;;19.17;17.00;;;15.10;91.70;;;;;;4944013;28;20135;-90
2023/09/02 07:19:48;;;;;;;19.43;16.97;;;15.10;91.70;;;;;;4943382;28;20042;-90
2023/09/02 07:22:13;;;;;;;22.40;17.10;;;15.30;92.10;;;;;;4963334;28;20137;-90
2023/09/02 07:24:39;;;;;;;19.77;17.67;;;15.60;91.90;;;;;;4959912;28;20286;-90
2023/09/02 07:27:05;;;;;;;20.63;18.50;;;15.90;90.60;;;;;;4959561;28;20071;-90
2023/09/02 07:29:30;;;;;;;21.50;18.63;;;16.20;87.10;;;;;;4959774;28;20051;-90
2023/09/02 07:31:56;;;;;;;19.98;17.17;;;16.40;83.90;;;;;;4946162;28;20549;-90
2023/09/02 07:34:22;;;;;;;20.08;17.55;;;16.50;80.60;;;;;;4927918;28;20129;-90
2023/09/02 07:36:47;;;;;;;21.30;18.67;;;16.40;78.90;;;;;;4927373;28;20393;-90
2023/09/02 07:39:16;;;;;;;21.80;18.92;;;16.30;78.90;;;;;;4927074;28;20046;-90
2023/09/02 07:41:41;;;;;;;22.20;20.00;;;16.20;80.10;;;;;;4944101;28;20442;-90
2023/09/02 07:44:08;;;;;;;22.05;18.30;;;16.00;81.60;;;;;;4958922;28;20053;-90
2023/09/02 07:46:34;;;;;;;21.63;19.27;;;16.00;83.30;;;;;;4943998;28;20121;-91
2023/09/02 07:49:00;;;;;;;23.60;19.80;;;16.00;84.90;;;;;;4943186;28;20050;-90
2023/09/02 07:51:26;;;;;;;23.27;20.17;;;15.90;85.60;;;;;;4959071;28;20137;-90
2023/09/02 07:53:51;;;;;;;22.15;19.75;;;16.00;87.00;;;;;;4958815;28;20293;-91
2023/09/02 07:56:17;;;;;;;24.43;20.73;;;15.90;87.40;;;;;;4927655;28;20050;-90
2023/09/02 07:58:46;;;;;;;23.73;20.13;;;16.00;88.20;;;;;;4942986;28;20310;-90
2023/09/02 08:01:12;;;;;;;29.15;22.38;;;16.00;88.40;;;;;;4927780;28;20086;-90
2023/09/02 08:03:38;;;;;;;26.40;21.33;;;16.00;88.40;;;;;;4942702;28;20101;-90
2023/09/02 08:06:06;;;;;;;27.40;22.45;;;16.00;88.30;;;;;;4958641;28;20051;-91
2023/09/02 08:08:32;;;;;;;26.10;23.20;;;16.00;88.40;;;;;;4943051;28;20134;-91
2023/09/02 08:11:07;;;;;;;27.58;24.15;;;16.10;89.30;;;;;;4958726;28;20122;-90
2023/09/02 08:13:34;;;;;;;27.67;23.88;;;16.10;88.80;;;;;;4958628;28;20054;-91
2023/09/02 08:16:05;;;;;;;26.42;23.52;;;16.10;88.80;;;;;;4958543;28;20449;-90
2023/09/02 08:18:31;;;;;;;33.05;25.08;;;16.10;89.00;;;;;;4958992;28;20051;-91
2023/09/02 08:20:57;;;;;;;29.00;23.13;;;16.10;90.20;;;;;;4958349;28;20055;-90
2023/09/02 08:23:23;;;;;;;27.87;24.53;;;16.10;91.40;;;;;;4942985;28;20117;-89
2023/09/02 08:25:48;;;;;;;27.83;24.83;;;16.20;91.50;;;;;;4942841;28;20785;-90
2023/09/02 08:28:14;;;;;;;27.23;23.60;;;16.20;91.40;;;;;;4958452;28;20042;-90
2023/09/02 08:30:40;;;;;;;26.33;21.98;;;16.30;91.30;;;;;;4958616;28;20047;-91
2023/09/02 08:33:06;;;;;;;26.58;22.90;;;16.40;90.20;;;;;;4958137;28;20053;-90
2023/09/02 08:35:38;;;;;;;27.27;23.33;;;16.50;89.60;;;;;;4975134;28;20090;-90
2023/09/02 08:38:04;;;;;;;126.85;31.88;;;16.70;89.80;;;;;;4958242;28;20051;-90
2023/09/02 08:40:31;;;;;;;28.42;23.15;;;16.80;88.90;;;;;;4942716;28;20043;-90
2023/09/02 08:43:00;;;;;;;26.15;21.45;;;16.90;88.10;;;;;;4957927;28;20157;-90
2023/09/02 08:45:28;;;;;;;26.05;22.02;;;17.20;85.70;;;;;;4942383;28;20135;-90
2023/09/02 08:47:59;;;;;;;23.33;20.83;;;17.40;82.00;;;;;;4957813;28;20051;-90
2023/09/02 08:50:28;;;;;;;30.67;23.13;;;17.60;78.90;;;;;;4975025;28;20046;-90
2023/09/02 08:52:55;;;;;;;24.58;22.00;;;17.70;75.20;;;;;;4957799;28;20565;-87
2023/09/02 08:55:22;;;;;;;24.00;20.33;;;17.80;72.00;;;;;;4942263;28;20497;-90
2023/09/02 08:57:49;;;;;;;22.20;19.98;;;17.90;71.60;;;;;;4958051;28;20059;-90
2023/09/02 09:00:14;;;;;;;25.58;18.83;;;18.10;68.90;;;;;;4973774;28;20047;-90
2023/09/02 09:02:41;;;;;;;28.45;19.85;;;18.30;62.70;;;;;;4957305;28;20062;-90
2023/09/02 09:05:07;;;;;;;;;;;18.50;57.50;;;;;;4957740;28;20133;-90
2023/09/02 09:07:33;;;;;;;22.17;19.23;;;18.70;54.80;;;;;;4974100;28;19922;-90
2023/09/02 09:10:02;;;;;;;20.90;18.38;;;18.90;50.60;;;;;;4957778;28;20049;-89
2023/09/02 09:12:33;;;;;;;22.52;18.20;;;18.90;41.60;;;;;;4958191;28;20047;-90
2023/09/02 09:15:02;;;;;;;20.05;16.80;;;19.10;31.50;;;;;;4941896;28;20051;-89
2023/09/02 09:17:28;;;;;;;29.73;16.55;;;19.10;26.10;;;;;;4975196;28;20089;-90
2023/09/02 09:19:57;;;;;;;19.15;15.93;;;19.20;21.50;;;;;;4941638;28;20055;-90
2023/09/02 09:22:24;;;;;;;18.85;16.83;;;19.30;11.40;;;;;;4941966;28;20055;-90
2023/09/02 09:24:49;;;;;;;22.40;16.42;;;19.30;11.40;;;;;;4958081;28;20066;-91
2023/09/02 09:27:16;;;;;;;21.10;17.10;;;19.50;15.80;;;;;;4941876;28;20042;-90
2023/09/02 09:29:42;;;;;;;;;;;19.60;14.70;;;;;;4958191;28;20050;-91
2023/09/02 09:32:13;;;;;;;15.88;14.07;;;19.70;10.20;;;;;;4973115;28;20381;-91
2023/09/02 09:34:43;;;;;;;16.25;14.07;;;19.70;3.70;;;;;;4973320;28;20485;-91
2023/09/02 09:37:09;;;;;;;16.92;14.75;;;19.70;1.00;;;;;;4942109;28;20054;-91
2023/09/02 09:39:46;;;;;;;19.60;14.32;;;19.60;1.00;;;;;;4942292;28;20051;-91
2023/09/02 09:42:14;;;;;;;16.42;14.27;;;19.50;1.00;;;;;;4925977;28;20104;-90
2023/09/02 09:44:57;;;;;;;17.85;14.55;;;19.50;1.00;;;;;;4958404;28;20051;-90
2023/09/02 09:47:24;;;;;;;18.15;15.23;;;19.60;1.00;;;;;;4941355;28;20081;-90
2023/09/02 09:49:49;;;;;;;16.90;15.10;;;19.60;1.00;;;;;;4941704;28;20054;-90
2023/09/02 09:52:17;;;;;;;18.25;13.40;;;19.60;1.00;;;;;;4956875;28;20495;-91
2023/09/02 09:54:48;;;;;;;16.33;14.57;;;19.70;1.00;;;;;;4941988;28;20129;-91
2023/09/02 09:57:34;;;;;;;16.95;13.95;;;19.80;1.00;;;;;;4957742;28;20510;-91
2023/09/02 10:00:00;;;;;;;16.52;13.70;;;19.90;1.00;;;;;;4941312;28;20138;-90
2023/09/02 10:02:26;;;;;;;14.95;13.32;;;19.90;1.00;;;;;;4940723;28;20043;-91
2023/09/02 10:04:57;;;;;;;16.58;13.38;;;19.90;1.00;;;;;;4957350;28;20516;-90
2023/09/02 10:07:25;;;;;;;16.63;12.95;;;19.90;1.00;;;;;;4957170;28;20398;-91
2023/09/02 10:09:53;;;;;;;15.43;12.32;;;19.90;1.00;;;;;;4957719;28;20482;-90
2023/09/02 10:12:19;;;;;;;13.00;10.82;;;19.90;1.00;;;;;;4940680;28;20104;-90
2023/09/02 10:14:47;;;;;;;16.58;11.98;;;19.60;1.00;;;;;;4974675;28;20133;-91
2023/09/02 10:17:14;;;;;;;16.95;12.70;;;18.90;1.00;;;;;;4941215;28;20554;-91
2023/09/02 10:19:40;;;;;;;16.27;13.15;;;19.80;1.00;;;;;;4941767;28;20061;-90
2023/09/02 10:22:06;;;;;;;15.23;13.48;;;19.80;1.00;;;;;;4972950;28;20046;-89
2023/09/02 10:24:34;;;;;;;13.23;11.52;;;19.90;1.00;;;;;;4957214;28;20403;-91
2023/09/02 10:27:02;;;;;;;15.77;13.80;;;19.90;1.00;;;;;;4957167;28;20057;-90
2023/09/02 10:29:32;;;;;;;19.15;14.00;;;20.00;1.00;;;;;;4941050;28;20055;-90
2023/09/02 10:32:06;;;;;;;17.73;12.95;;;20.10;1.00;;;;;;4957213;28;20046;-90
2023/09/02 10:34:39;;;;;;;16.23;12.63;;;20.20;1.00;;;;;;4973445;28;20193;-90
2023/09/02 10:37:08;;;;;;;17.17;12.60;;;20.30;1.00;;;;;;4973240;28;20137;-90
2023/09/02 10:39:47;;;;;;;16.58;13.50;;;20.50;1.00;;;;;;4941174;28;20386;-90
2023/09/02 10:42:15;;;;;;;21.08;14.45;;;20.70;1.00;;;;;;4956469;28;20086;-89
2023/09/02 10:44:41;;;;;;;15.65;12.10;;;20.70;1.00;;;;;;4957428;28;20098;-90
2023/09/02 10:47:08;;;;;;;20.70;13.35;;;20.90;1.00;;;;;;4957008;28;20053;-90
2023/09/02 10:49:34;;;;;;;;;;;20.00;1.00;;;;;;4957687;28;20053;-90
2023/09/02 10:52:03;;;;;;;12.27;10.98;;;21.00;1.00;;;;;;4940945;28;19961;-91
2023/09/02 10:55:01;;;;;;;10.23;8.85;;;21.00;1.00;;;;;;4956535;28;20065;-90
2023/09/02 10:57:27;;;;;;;13.00;9.07;;;21.10;1.00;;;;;;4940460;28;20078;-90
2023/09/02 11:00:12;;;;;;;15.75;10.57;;;21.20;1.00;;;;;;4956540;28;20409;-91
2023/09/02 11:02:39;;;;;;;12.00;9.00;;;21.40;1.00;;;;;;4940486;28;20062;-90
2023/09/02 11:05:05;;;;;;;11.73;10.52;;;21.40;1.00;;;;;;4940452;28;20607;-90
2023/09/02 11:07:33;;;;;;;;;;;21.50;1.00;;;;;;4956670;28;20058;-91
2023/09/02 11:10:00;;;;;;;13.00;11.70;;;21.70;1.00;;;;;;4972774;28;19926;-90
2023/09/02 11:12:26;;;;;;;;;;;20.80;1.00;;;;;;4957120;28;20501;-90
2023/09/02 11:15:07;;;;;;;16.35;9.65;;;21.90;1.00;;;;;;4944168;28;20384;-90
2023/09/02 11:17:33;;;;;;;13.80;11.98;;;22.00;99.90;;;;;;4943650;28;20049;-90
2023/09/02 11:20:14;;;;;;;15.05;11.52;;;22.10;99.90;;;;;;4960046;28;20061;-91
2023/09/02 11:22:50;;;;;;;15.05;12.30;;;22.20;99.90;;;;;;4944274;28;20057;-90
2023/09/02 11:25:23;;;;;;;;;;;22.40;99.90;;;;;;4946643;28;20047;-90
2023/09/02 11:27:50;;;;;;;12.85;11.25;;;22.40;99.90;;;;;;4960743;28;19922;-91
2023/09/02 11:30:18;;;;;;;;;;;22.50;99.90;;;;;;4945681;28;20051;-90
2023/09/02 11:32:44;;;;;;;11.25;9.82;;;22.60;99.90;;;;;;4976235;28;20347;-91
2023/09/02 11:35:11;;;;;;;103.70;20.63;;;22.50;99.90;;;;;;4976475;28;20051;-92
2023/09/02 11:37:37;;;;;;;361.85;156.60;;;22.20;99.90;;;;;;4961260;28;20050;-91
2023/09/02 11:40:17;;;;;;;9.88;8.80;;;22.10;99.90;;;;;;4945712;28;20110;-91
2023/09/02 11:42:49;;;;;;;14.52;11.82;;;21.90;99.90;;;;;;4961443;28;20422;-91
2023/09/02 11:45:15;;;;;;;14.63;10.65;;;22.00;99.90;;;;;;4960909;28;20066;-91
2023/09/02 11:47:41;;;;;;;;;;;22.10;99.90;;;;;;4961304;28;20082;-91
2023/09/02 11:50:18;;;;;;;14.57;11.23;;;22.40;99.90;;;;;;4979444;28;19922;-90
2023/09/02 11:52:44;;;;;;;13.13;9.57;;;22.60;99.90;;;;;;4961686;28;20043;-90
2023/09/02 11:55:14;;;;;;;13.65;10.85;;;22.70;99.90;;;;;;4931490;28;20058;-90
2023/09/02 11:57:40;;;;;;;13.15;11.73;;;21.90;99.90;;;;;;4978921;28;20444;-90
2023/09/02 12:00:08;;;;;;;11.93;10.68;;;22.80;99.90;;;;;;4963741;28;20078;-90
2023/09/02 12:02:40;;;;;;;12.40;10.30;;;22.60;99.90;;;;;;4946407;28;20067;-90
2023/09/02 12:05:07;;;;;;;12.82;9.32;;;22.50;99.90;;;;;;4962316;28;20109;-89
2023/09/02 12:07:35;;;;;;;11.65;10.25;;;22.50;99.90;;;;;;4961197;28;20564;-90
2023/09/02 12:10:24;;;;;;;10.52;9.50;;;22.60;99.90;;;;;;4949492;28;20060;-89
2023/09/02 12:12:50;;;;;;;12.05;9.30;;;22.60;99.90;;;;;;4963197;28;20054;-89
2023/09/02 12:15:21;;;;;;;10.60;8.52;;;22.70;99.90;;;;;;4932044;28;20402;-90
2023/09/02 12:17:48;;;;;;;11.73;8.18;;;22.80;99.90;;;;;;4962908;28;20058;-90
2023/09/02 12:20:17;;;;;;;10.00;9.00;;;23.00;99.90;;;;;;4961103;28;20086;-90
2023/09/02 12:22:44;;;;;;;11.93;8.85;;;23.00;78.30;;;;;;4960439;28;20106;-90
2023/09/02 12:25:13;;;;;;;12.07;9.50;;;23.20;99.90;;;;;;4943547;28;20601;-89
2023/09/02 12:27:40;;;;;;;10.38;8.15;;;23.20;1.00;;;;;;4959260;28;20058;-90
2023/09/02 12:30:06;;;;;;;11.05;9.10;;;23.20;38.30;;;;;;4976206;28;20498;-90
2023/09/02 12:32:32;;;;;;;9.10;7.70;;;23.40;1.00;;;;;;4926375;28;20481;-90
2023/09/02 12:34:58;;;;;;;8.27;6.95;;;23.50;20.80;;;;;;4942438;28;20046;-90
2023/09/02 12:37:24;;;;;;;8.40;6.72;;;23.40;1.00;;;;;;4958148;28;20547;-89
2023/09/02 12:39:50;;;;;;;8.57;6.03;;;23.30;1.00;;;;;;4942568;28;20073;-90
2023/09/02 12:42:17;;;;;;;;;;;23.30;1.00;;;;;;4958353;28;20046;-90